Platzwetter / Webcam

  • Aktuelles Bild
  • Verlauf
  • Verlauf
  • Verlauf
  • Verlauf
  • Verlauf
  • Verlauf
  • Verlauf
  • Verlauf
  • Verlauf
  • Verlauf
  • Verlauf
  • Verlauf
  • Verlauf
  • Verlauf
  • Verlauf
  • Verlauf
  • Verlauf

Flugwetter Linz

[Quelle: ADDS]
METAR
LOWL 261450Z 32005KT 250V030 9999 FEW060 23/08 Q1019 NOSIG =
TAF
LOWL 261115Z 2612/2712 30007KT 9999 FEW050 TX23/2712Z TN12/2704Z BECMG 2616/2618 VRB02KT CAVOK BECMG 2706/2708 10005KT 9999 FEW060 =

Flugwetter Salzburg

[Quelle: ADDS]
METAR
LOWS 261450Z 04008KT 010V100 9999 FEW060 23/07 Q1020 NOSIG =
TAF
LOWS 261115Z 2612/2712 02007KT 9999 FEW060 TX23/2712Z TN10/2703Z BECMG 2616/2618 16006KT CAVOK BECMG 2707/2709 05007KT =

Fliegen lernen

Die Fliegerschule der WMW...

Termine & Events

Alle Termine anzeigen...

Mietwagen

am Flugplatz Wels 
Toyota Aygo 1.0 VVTi 5tg.

1/2 Tag      25,- Euro
1 Tag   50,- Euro
Wochenende   100,- Euro

Weitere Infos...

+++ Aktuelle Spritpreise (24.04.2017): | Jet A-1 € 1,340 | Super Plus 98 ETBE € 1,418 | Avgas 100LL € 1,992 | +++